Time,TemperatureF,DewpointF,PressureIn,WindDirection,WindDirectionDegrees,WindSpeedMPH,WindSpeedGustMPH,Humidity,HourlyPrecipIn,Conditions,Clouds,dailyrainin,SoftwareType,DateUTC
2013-11-21 00:01:00,31.8,-4.7,30.33,NE,51,0.0,0.0,20,0.00,,---,0.00,VWS V14.01,2013-11-21 05:01:00,
2013-11-21 00:02:00,31.8,-4.7,30.33,NE,50,3.1,3.1,20,0.00,,---,0.00,VWS V14.01,2013-11-21 05:02:00,
2013-11-21 00:07:00,32.0,-4.5,30.33,NE,50,0.0,0.0,20,0.00,,---,0.00,VWS V14.01,2013-11-21 05:07:00,
2013-11-21 00:12:00,31.8,-4.7,30.33,NE,50,0.0,0.0,20,0.00,,---,0.00,VWS V14.01,2013-11-21 05:12:00,
2013-11-21 00:17:00,32.0,-4.5,30.33,NE,49,0.0,0.0,20,0.00,,---,0.00,VWS V14.01,2013-11-21 05:17:00,
2013-11-21 00:22:00,32.4,-4.2,30.33,NW,313,3.1,3.1,20,0.00,,---,0.00,VWS V14.01,2013-11-21 05:22:00,
2013-11-21 00:27:00,32.0,-4.5,30.33,NW,313,0.0,0.0,20,0.00,,---,0.00,VWS V14.01,2013-11-21 05:27:00,
2013-11-21 00:32:00,32.2,-4.4,30.33,NW,313,0.0,0.0,20,0.00,,---,0.00,VWS V14.01,2013-11-21 05:32:00,
2013-11-21 00:38:00,32.2,-4.4,30.33,NW,313,0.0,0.0,20,0.00,,---,0.00,VWS V14.01,2013-11-21 05:38:00,
2013-11-21 00:43:00,32.4,-4.2,30.33,NW,313,0.0,0.0,20,0.00,,---,0.00,VWS V14.01,2013-11-21 05:43:00,
2013-11-21 00:48:00,32.7,-3.9,30.33,NW,313,0.0,0.0,20,0.00,,---,0.00,VWS V14.01,2013-11-21 05:48:00,
2013-11-21 00:53:00,32.9,-3.8,30.33,NW,313,0.0,0.0,20,0.00,,---,0.00,VWS V14.01,2013-11-21 05:53:00,
2013-11-21 00:57:00,33.1,-3.6,30.33,NW,313,0.0,0.0,20,0.00,,---,0.00,VWS V14.01,2013-11-21 05:57:00,
2013-11-21 01:02:00,33.3,-3.5,30.33,NW,313,0.0,0.0,20,0.00,,---,0.00,VWS V14.01,2013-11-21 06:02:00,
2013-11-21 01:07:00,33.3,-3.5,30.33,NW,313,0.0,0.0,20,0.00,,---,0.00,VWS V14.01,2013-11-21 06:07:00,
2013-11-21 01:12:00,33.3,-3.5,30.33,NW,313,0.0,0.0,20,0.00,,---,0.00,VWS V14.01,2013-11-21 06:12:00,
2013-11-21 01:17:00,33.4,-3.3,30.33,NW,313,0.0,0.0,20,0.00,,---,0.00,VWS V14.01,2013-11-21 06:17:00,
2013-11-21 01:22:00,33.6,-3.2,30.33,NE,34,0.0,0.0,20,0.00,,---,0.00,VWS V14.01,2013-11-21 06:22:00,
2013-11-21 01:28:00,33.8,-3.0,30.33,NE,34,0.0,0.0,20,0.00,,---,0.00,VWS V14.01,2013-11-21 06:28:00,
2013-11-21 01:33:00,33.8,-3.0,30.33,NE,34,0.0,0.0,20,0.00,,---,0.00,VWS V14.01,2013-11-21 06:33:00,
2013-11-21 01:38:00,33.8,-3.0,30.33,WSW,240,0.0,3.1,20,0.00,,---,0.00,VWS V14.01,2013-11-21 06:38:00,
2013-11-21 01:43:00,33.8,-3.0,30.33,SSW,199,0.0,0.0,20,0.00,,---,0.00,VWS V14.01,2013-11-21 06:43:00,
2013-11-21 01:48:00,33.8,-3.0,30.33,West,281,0.0,0.0,20,0.00,,---,0.00,VWS V14.01,2013-11-21 06:48:00,
2013-11-21 01:53:00,33.8,-3.0,30.33,WNW,282,0.0,0.0,20,0.00,,---,0.00,VWS V14.01,2013-11-21 06:53:00,
2013-11-21 01:58:00,33.6,-3.2,30.33,WNW,283,0.0,0.0,20,0.00,,---,0.00,VWS V14.01,2013-11-21 06:58:00,
2013-11-21 02:03:00,33.8,-3.0,30.33,West,274,2.2,2.7,20,0.00,,---,0.00,VWS V14.01,2013-11-21 07:03:00,
2013-11-21 02:08:00,34.0,-2.9,30.33,WNW,297,2.7,3.1,20,0.00,,---,0.00,VWS V14.01,2013-11-21 07:08:00,
2013-11-21 02:13:00,34.0,-2.9,30.33,NE,38,0.0,0.0,20,0.00,,---,0.00,VWS V14.01,2013-11-21 07:13:00,
2013-11-21 02:19:00,34.0,-2.9,30.33,WNW,295,0.0,2.2,20,0.00,,---,0.00,VWS V14.01,2013-11-21 07:19:00,
2013-11-21 02:24:00,33.8,-3.0,30.33,North,357,0.0,0.0,20,0.00,,---,0.00,VWS V14.01,2013-11-21 07:24:00,
2013-11-21 02:29:00,33.8,-3.0,30.33,North,357,0.0,0.0,20,0.00,,---,0.00,VWS V14.01,2013-11-21 07:29:00,
2013-11-21 02:34:00,33.4,-3.3,30.33,NW,326,0.0,0.0,20,0.00,,---,0.00,VWS V14.01,2013-11-21 07:34:00,
2013-11-21 02:39:00,32.9,-3.8,30.33,NW,326,0.0,0.0,20,0.00,,---,0.00,VWS V14.01,2013-11-21 07:39:00,
2013-11-21 02:44:00,32.7,-3.9,30.33,NW,326,0.0,0.0,20,0.00,,---,0.00,VWS V14.01,2013-11-21 07:44:00,
2013-11-21 02:49:00,32.4,-4.2,30.33,NW,326,0.0,0.0,20,0.00,,---,0.00,VWS V14.01,2013-11-21 07:49:00,
2013-11-21 02:54:00,32.4,-4.2,30.33,NNW,343,0.0,0.0,20,0.00,,---,0.00,VWS V14.01,2013-11-21 07:54:00,
2013-11-21 02:59:00,32.4,-4.2,30.33,NNW,343,0.0,0.0,20,0.00,,---,0.00,VWS V14.01,2013-11-21 07:59:00,
2013-11-21 03:04:00,32.0,-4.5,30.33,NNW,343,0.0,0.0,20,0.00,,---,0.00,VWS V14.01,2013-11-21 08:04:00,
2013-11-21 03:09:00,31.8,-4.7,30.33,NNW,343,0.0,0.0,20,0.00,,---,0.00,VWS V14.01,2013-11-21 08:09:00,
2013-11-21 03:14:00,31.6,-4.8,30.33,NNW,343,0.0,0.0,20,0.00,,---,0.00,VWS V14.01,2013-11-21 08:14:00,
2013-11-21 03:19:00,31.6,-4.8,30.33,NNW,343,0.0,0.0,20,0.00,,---,0.00,VWS V14.01,2013-11-21 08:19:00,
2013-11-21 03:24:00,31.8,-4.7,30.33,NNW,343,0.0,0.0,20,0.00,,---,0.00,VWS V14.01,2013-11-21 08:24:00,
2013-11-21 03:30:00,32.0,-4.5,30.33,NNW,343,0.0,0.0,20,0.00,,---,0.00,VWS V14.01,2013-11-21 08:30:00,
2013-11-21 03:35:00,32.2,-4.4,30.33,NNW,343,0.0,0.0,20,0.00,,---,0.00,VWS V14.01,2013-11-21 08:35:00,
2013-11-21 03:40:00,32.4,-4.2,30.33,NNW,343,0.0,0.0,20,0.00,,---,0.00,VWS V14.01,2013-11-21 08:40:00,
2013-11-21 03:45:00,32.2,-4.4,30.33,NNW,343,0.0,0.0,20,0.00,,---,0.00,VWS V14.01,2013-11-21 08:45:00,
2013-11-21 03:50:00,32.2,-4.4,30.33,NNW,343,0.0,0.0,20,0.00,,---,0.00,VWS V14.01,2013-11-21 08:50:00,
2013-11-21 03:55:00,32.0,-4.5,30.33,NNW,343,0.0,0.0,20,0.00,,---,0.00,VWS V14.01,2013-11-21 08:55:00,
2013-11-21 04:00:00,31.6,-4.8,30.33,NNW,343,0.0,0.0,20,0.00,,---,0.00,VWS V14.01,2013-11-21 09:00:00,
2013-11-21 04:05:00,31.3,-5.1,30.33,NNW,343,0.0,0.0,20,0.00,,---,0.00,VWS V14.01,2013-11-21 09:05:00,
2013-11-21 04:10:00,31.3,-5.1,30.33,NNW,345,0.0,0.0,20,0.00,,---,0.00,VWS V14.01,2013-11-21 09:10:00,
2013-11-21 04:15:00,31.5,-5.0,30.33,NNW,346,0.0,0.0,20,0.00,,---,0.00,VWS V14.01,2013-11-21 09:15:00,
2013-11-21 04:20:00,31.3,-5.1,30.33,NNW,346,0.0,0.0,20,0.00,,---,0.00,VWS V14.01,2013-11-21 09:20:00,
2013-11-21 04:25:00,31.3,-5.1,30.33,NNW,346,0.0,0.0,20,0.00,,---,0.00,VWS V14.01,2013-11-21 09:25:00,
2013-11-21 04:31:00,31.1,-5.3,30.33,NNW,348,0.0,0.0,20,0.00,,---,0.00,VWS V14.01,2013-11-21 09:31:00,
2013-11-21 04:36:00,30.9,-5.4,30.33,NNW,346,0.0,0.0,20,0.00,,---,0.00,VWS V14.01,2013-11-21 09:36:00,
2013-11-21 04:41:00,30.7,-5.6,30.33,NNW,346,0.0,0.0,20,0.00,,---,0.00,VWS V14.01,2013-11-21 09:41:00,
2013-11-21 04:46:00,30.7,-2.7,30.33,NNW,346,0.0,0.0,23,0.00,,---,0.00,VWS V14.01,2013-11-21 09:46:00,
2013-11-21 04:51:00,30.9,-2.5,30.33,NNW,346,0.0,0.0,23,0.00,,---,0.00,VWS V14.01,2013-11-21 09:51:00,
2013-11-21 04:56:00,31.1,-2.4,30.33,NNW,346,0.0,0.0,23,0.00,,---,0.00,VWS V14.01,2013-11-21 09:56:00,
2013-11-21 05:01:00,31.1,-2.4,30.33,NNW,346,0.0,0.0,23,0.00,,---,0.00,VWS V14.01,2013-11-21 10:01:00,
2013-11-21 05:06:00,31.1,-2.4,30.33,NNW,346,0.0,0.0,23,0.00,,---,0.00,VWS V14.01,2013-11-21 10:06:00,
2013-11-21 05:11:00,31.1,-2.4,30.33,NNW,346,0.0,0.0,23,0.00,,---,0.00,VWS V14.01,2013-11-21 10:11:00,
2013-11-21 05:16:00,30.9,-2.5,30.33,NNW,348,0.0,0.0,23,0.00,,---,0.00,VWS V14.01,2013-11-21 10:16:00,
2013-11-21 05:21:00,30.7,-2.7,30.33,NNW,346,0.0,0.0,23,0.00,,---,0.00,VWS V14.01,2013-11-21 10:21:00,
2013-11-21 05:26:00,30.6,-2.8,30.33,NNW,346,0.0,0.0,23,0.00,,---,0.00,VWS V14.01,2013-11-21 10:26:00,
2013-11-21 05:31:00,30.4,-3.0,30.33,NNW,346,0.0,0.0,23,0.00,,---,0.00,VWS V14.01,2013-11-21 10:31:00,
2013-11-21 05:37:00,30.4,-3.0,30.33,NNW,346,0.0,0.0,23,0.00,,---,0.00,VWS V14.01,2013-11-21 10:37:00,
2013-11-21 05:42:00,30.4,-3.0,30.33,NNW,346,0.0,0.0,23,0.00,,---,0.00,VWS V14.01,2013-11-21 10:42:00,
2013-11-21 05:47:00,30.2,-3.1,30.33,NNW,346,0.0,0.0,23,0.00,,---,0.00,VWS V14.01,2013-11-21 10:47:00,
2013-11-21 05:52:00,30.4,-3.0,30.33,NNW,346,0.0,0.0,23,0.00,,---,0.00,VWS V14.01,2013-11-21 10:52:00,
2013-11-21 05:57:00,30.4,-3.0,30.33,NNW,346,0.0,0.0,23,0.00,,---,0.00,VWS V14.01,2013-11-21 10:57:00,
2013-11-21 06:02:00,30.4,-3.0,30.33,NNW,346,0.0,0.0,23,0.00,,---,0.00,VWS V14.01,2013-11-21 11:02:00,
2013-11-21 06:07:00,30.6,-2.8,30.33,NNW,348,0.0,0.0,23,0.00,,---,0.00,VWS V14.01,2013-11-21 11:07:00,
2013-11-21 06:12:00,30.9,-0.8,30.36,NNW,348,0.0,0.0,25,0.00,,---,0.00,VWS V14.01,2013-11-21 11:12:00,
2013-11-21 06:17:00,31.1,-0.6,30.36,NNW,348,0.0,0.0,25,0.00,,---,0.00,VWS V14.01,2013-11-21 11:17:00,
2013-11-21 06:22:00,31.1,-2.4,30.36,NNW,346,0.0,0.0,23,0.00,,---,0.00,VWS V14.01,2013-11-21 11:22:00,
2013-11-21 06:27:00,30.9,-0.8,30.36,NNW,348,0.0,0.0,25,0.00,,---,0.00,VWS V14.01,2013-11-21 11:27:00,
2013-11-21 06:32:00,31.1,-0.6,30.36,NNW,346,0.0,0.0,25,0.00,,---,0.00,VWS V14.01,2013-11-21 11:32:00,
2013-11-21 06:37:00,31.3,-0.4,30.36,NNW,346,0.0,0.0,25,0.00,,---,0.00,VWS V14.01,2013-11-21 11:37:00,
2013-11-21 06:42:00,31.5,-0.3,30.36,NNW,346,0.0,0.0,25,0.00,,---,0.00,VWS V14.01,2013-11-21 11:42:00,
2013-11-21 06:47:00,31.5,-0.3,30.36,NNW,348,0.0,0.0,25,0.00,,---,0.00,VWS V14.01,2013-11-21 11:47:00,
2013-11-21 06:52:00,31.5,-0.3,30.36,NNW,346,0.0,0.0,25,0.00,,---,0.00,VWS V14.01,2013-11-21 11:52:00,
2013-11-21 06:58:00,31.8,0.0,30.36,NNW,346,0.0,0.0,25,0.00,,---,0.00,VWS V14.01,2013-11-21 11:58:00,
2013-11-21 07:03:00,32.0,0.2,30.36,NNW,346,0.0,0.0,25,0.00,,---,0.00,VWS V14.01,2013-11-21 12:03:00,
2013-11-21 07:08:00,32.2,0.3,30.36,NNW,346,0.0,0.0,25,0.00,,---,0.00,VWS V14.01,2013-11-21 12:08:00,
2013-11-21 07:13:00,32.5,0.6,30.36,NNW,346,0.0,0.0,25,0.00,,---,0.00,VWS V14.01,2013-11-21 12:13:00,
2013-11-21 07:18:00,32.7,0.8,30.36,NNW,348,0.0,0.0,25,0.00,,---,0.00,VWS V14.01,2013-11-21 12:18:00,
2013-11-21 07:23:00,32.7,0.8,30.36,NNW,348,0.0,0.0,25,0.00,,---,0.00,VWS V14.01,2013-11-21 12:23:00,
2013-11-21 07:28:00,32.5,0.6,30.36,NNW,346,0.0,0.0,25,0.00,,---,0.00,VWS V14.01,2013-11-21 12:28:00,
2013-11-21 07:33:00,32.5,0.6,30.36,NNW,346,0.0,0.0,25,0.00,,---,0.00,VWS V14.01,2013-11-21 12:33:00,
2013-11-21 07:38:00,32.5,0.6,30.36,NNW,346,0.0,0.0,25,0.00,,---,0.00,VWS V14.01,2013-11-21 12:38:00,
2013-11-21 07:43:00,32.5,0.6,30.36,NNW,345,0.0,0.0,25,0.00,,---,0.00,VWS V14.01,2013-11-21 12:43:00,
2013-11-21 07:48:00,32.7,0.8,30.36,NNW,346,0.0,0.0,25,0.00,,---,0.00,VWS V14.01,2013-11-21 12:48:00,
2013-11-21 07:53:00,32.9,0.9,30.36,NNW,346,0.0,0.0,25,0.00,,---,0.00,VWS V14.01,2013-11-21 12:53:00,
2013-11-21 07:58:00,33.1,1.1,30.36,NNW,346,0.0,0.0,25,0.00,,---,0.00,VWS V14.01,2013-11-21 12:58:00,
2013-11-21 08:03:00,33.3,1.2,30.36,NNW,346,0.0,0.0,25,0.00,,---,0.00,VWS V14.01,2013-11-21 13:03:00,
2013-11-21 08:08:00,33.6,1.6,30.36,NNW,346,0.0,0.0,25,0.00,,---,0.00,VWS V14.01,2013-11-21 13:08:00,
2013-11-21 08:13:00,33.8,1.7,30.36,NNW,346,0.0,0.0,25,0.00,,---,0.00,VWS V14.01,2013-11-21 13:13:00,
2013-11-21 08:18:00,34.2,2.0,30.36,NNW,346,0.0,0.0,25,0.00,,---,0.00,VWS V14.01,2013-11-21 13:18:00,
2013-11-21 08:23:00,34.2,2.0,30.36,NNW,346,0.0,0.0,25,0.00,,---,0.00,VWS V14.01,2013-11-21 13:23:00,
2013-11-21 08:28:00,34.0,-0.9,30.36,WNW,295,0.0,0.0,22,0.00,,---,0.00,VWS V14.01,2013-11-21 13:28:00,
2013-11-21 08:34:00,33.8,-1.0,30.36,WNW,295,0.0,0.0,22,0.00,,---,0.00,VWS V14.01,2013-11-21 13:34:00,
2013-11-21 08:39:00,33.8,-1.0,30.36,WNW,295,0.0,0.0,22,0.00,,---,0.00,VWS V14.01,2013-11-21 13:39:00,
2013-11-21 08:44:00,33.8,-1.0,30.36,WNW,295,0.0,0.0,22,0.00,,---,0.00,VWS V14.01,2013-11-21 13:44:00,
2013-11-21 08:49:00,34.0,-0.9,30.36,WNW,295,0.0,0.0,22,0.00,,---,0.00,VWS V14.01,2013-11-21 13:49:00,
2013-11-21 08:54:00,34.2,-0.7,30.36,WNW,295,0.0,0.0,22,0.00,,---,0.00,VWS V14.01,2013-11-21 13:54:00,
2013-11-21 08:59:00,34.3,-0.6,30.36,WNW,295,0.0,0.0,22,0.00,,---,0.00,VWS V14.01,2013-11-21 13:59:00,
2013-11-21 09:04:00,34.7,-0.2,30.36,WNW,295,0.0,0.0,22,0.00,,---,0.00,VWS V14.01,2013-11-21 14:04:00,
2013-11-21 09:09:00,35.1,0.1,30.36,WNW,290,0.0,0.0,22,0.00,,---,0.00,VWS V14.01,2013-11-21 14:09:00,
2013-11-21 09:14:00,35.4,0.4,30.36,WNW,290,0.0,0.0,22,0.00,,---,0.00,VWS V14.01,2013-11-21 14:14:00,
2013-11-21 09:19:00,35.6,0.5,30.36,SW,225,2.7,2.7,22,0.00,,---,0.00,VWS V14.01,2013-11-21 14:19:00,
2013-11-21 09:24:00,35.8,0.7,30.36,SSW,205,0.0,0.0,22,0.00,,---,0.00,VWS V14.01,2013-11-21 14:24:00,
2013-11-21 09:29:00,36.1,1.0,30.36,SSW,205,0.0,0.0,22,0.00,,---,0.00,VWS V14.01,2013-11-21 14:29:00,
2013-11-21 09:34:00,36.7,1.4,30.36,SSW,205,0.0,0.0,22,0.00,,---,0.00,VWS V14.01,2013-11-21 14:34:00,
2013-11-21 09:39:00,36.9,1.6,30.33,SW,229,3.1,3.1,22,0.00,,---,0.00,VWS V14.01,2013-11-21 14:39:00,
2013-11-21 09:44:00,37.0,-1.4,30.33,SSW,213,0.0,0.0,19,0.00,,---,0.00,VWS V14.01,2013-11-21 14:44:00,
2013-11-21 09:50:00,37.0,-1.4,30.33,SW,228,3.1,3.6,19,0.00,,---,0.00,VWS V14.01,2013-11-21 14:50:00,
2013-11-21 09:55:00,37.2,-1.2,30.36,SSW,210,2.7,2.7,19,0.00,,---,0.00,VWS V14.01,2013-11-21 14:55:00,
2013-11-21 10:00:00,37.4,-1.1,30.36,SSW,195,0.0,0.0,19,0.00,,---,0.00,VWS V14.01,2013-11-21 15:00:00,
2013-11-21 10:05:00,37.8,-0.8,30.36,SSW,204,0.0,0.0,19,0.00,,---,0.00,VWS V14.01,2013-11-21 15:05:00,
2013-11-21 10:10:00,37.9,-0.6,30.36,SSW,192,2.7,2.7,19,0.00,,---,0.00,VWS V14.01,2013-11-21 15:10:00,
2013-11-21 10:15:00,38.1,-0.5,30.36,SSW,207,0.0,0.0,19,0.00,,---,0.00,VWS V14.01,2013-11-21 15:15:00,
2013-11-21 10:20:00,38.5,-0.2,30.36,SW,224,3.1,3.1,19,0.00,,---,0.00,VWS V14.01,2013-11-21 15:20:00,
2013-11-21 10:25:00,38.3,-0.3,30.36,SSW,195,3.1,3.6,19,0.00,,---,0.00,VWS V14.01,2013-11-21 15:25:00,
2013-11-21 10:30:00,38.5,-0.2,30.36,SW,226,2.7,2.7,19,0.00,,---,0.00,VWS V14.01,2013-11-21 15:30:00,
2013-11-21 10:35:00,38.5,-0.2,30.36,SW,220,3.1,3.1,19,0.00,,---,0.00,VWS V14.01,2013-11-21 15:35:00,
2013-11-21 10:40:00,38.5,-0.2,30.36,WSW,240,2.7,3.1,19,0.00,,---,0.00,VWS V14.01,2013-11-21 15:40:00,
2013-11-21 10:45:00,38.5,-0.2,30.36,SSW,212,0.0,0.0,19,0.00,,---,0.00,VWS V14.01,2013-11-21 15:45:00,
2013-11-21 10:50:00,38.5,-0.2,30.36,SSW,210,0.0,0.0,19,0.00,,---,0.00,VWS V14.01,2013-11-21 15:50:00,
2013-11-21 10:55:00,38.5,-0.2,30.36,ENE,65,2.7,3.6,19,0.00,,---,0.00,VWS V14.01,2013-11-21 15:55:00,
2013-11-21 11:00:00,38.5,-0.2,30.36,NE,53,3.6,4.0,19,0.00,,---,0.00,VWS V14.01,2013-11-21 16:00:00,
2013-11-21 11:06:00,38.5,-0.2,30.36,NE,56,0.0,0.0,19,0.00,,---,0.00,VWS V14.01,2013-11-21 16:06:00,
2013-11-21 11:11:00,38.7,0.0,30.36,NE,56,0.0,0.0,19,0.00,,---,0.00,VWS V14.01,2013-11-21 16:11:00,
2013-11-21 11:16:00,38.8,0.1,30.36,WSW,245,2.2,2.7,19,0.00,,---,0.00,VWS V14.01,2013-11-21 16:16:00,
2013-11-21 11:21:00,39.2,-0.7,30.36,WSW,245,0.0,0.0,18,0.00,,---,0.00,VWS V14.01,2013-11-21 16:21:00,
2013-11-21 11:26:00,39.4,-0.6,30.36,WSW,242,0.0,0.0,18,0.00,,---,0.00,VWS V14.01,2013-11-21 16:26:00,
2013-11-21 11:31:00,39.6,-0.4,30.36,SW,227,0.0,0.0,18,0.00,,---,0.00,VWS V14.01,2013-11-21 16:31:00,
2013-11-21 11:36:00,39.9,-0.1,30.36,NNW,339,0.0,0.0,18,0.00,,---,0.00,VWS V14.01,2013-11-21 16:36:00,
2013-11-21 11:41:00,40.5,0.3,30.33,WNW,298,0.0,0.0,18,0.00,,---,0.00,VWS V14.01,2013-11-21 16:41:00,
2013-11-21 11:46:00,40.5,0.3,30.33,WNW,294,0.0,0.0,18,0.00,,---,0.00,VWS V14.01,2013-11-21 16:46:00,
2013-11-21 11:51:00,40.8,0.6,30.33,NNE,30,0.0,0.0,18,0.00,,---,0.00,VWS V14.01,2013-11-21 16:51:00,
2013-11-21 11:56:00,41.0,0.8,30.33,SW,215,3.1,3.1,18,0.00,,---,0.00,VWS V14.01,2013-11-21 16:56:00,
2013-11-21 12:01:00,41.2,0.9,30.33,SSW,198,2.7,3.1,18,0.00,,---,0.00,VWS V14.01,2013-11-21 17:01:00,
2013-11-21 12:06:00,41.5,1.2,30.33,SSW,204,4.9,4.9,18,0.00,,---,0.00,VWS V14.01,2013-11-21 17:06:00,
2013-11-21 12:11:00,41.7,1.4,30.33,SSW,199,4.0,4.0,18,0.00,,---,0.00,VWS V14.01,2013-11-21 17:11:00,
2013-11-21 12:16:00,41.4,1.0,30.33,SSW,196,4.0,4.0,18,0.00,,---,0.00,VWS V14.01,2013-11-21 17:16:00,
2013-11-21 12:22:00,41.4,1.0,30.33,WSW,247,0.0,0.0,18,0.00,,---,0.00,VWS V14.01,2013-11-21 17:22:00,
2013-11-21 12:27:00,41.5,1.2,30.33,ENE,67,2.7,2.7,18,0.00,,---,0.00,VWS V14.01,2013-11-21 17:27:00,
2013-11-21 12:32:00,42.1,1.6,30.33,East,81,0.0,0.0,18,0.00,,---,0.00,VWS V14.01,2013-11-21 17:32:00,
2013-11-21 12:37:00,42.4,1.9,30.33,ENE,59,4.0,4.0,18,0.00,,---,0.00,VWS V14.01,2013-11-21 17:37:00,
2013-11-21 12:42:00,42.8,2.2,30.33,WSW,253,0.0,0.0,18,0.00,,---,0.00,VWS V14.01,2013-11-21 17:42:00,
2013-11-21 12:47:00,43.0,2.4,30.33,SW,214,3.6,3.6,18,0.00,,---,0.00,VWS V14.01,2013-11-21 17:47:00,
2013-11-21 12:52:00,43.0,2.4,30.33,SW,220,2.2,3.1,18,0.00,,---,0.00,VWS V14.01,2013-11-21 17:52:00,
2013-11-21 12:57:00,43.0,2.4,30.33,SSW,208,2.7,3.1,18,0.00,,---,0.00,VWS V14.01,2013-11-21 17:57:00,
2013-11-21 13:02:00,43.0,2.4,30.33,SSW,211,2.7,3.1,18,0.00,,---,0.00,VWS V14.01,2013-11-21 18:02:00,
2013-11-21 13:07:00,43.0,2.4,30.30,SSW,211,5.4,5.4,18,0.00,,---,0.00,VWS V14.01,2013-11-21 18:07:00,
2013-11-21 13:12:00,43.0,2.4,30.30,SSW,213,3.1,4.0,18,0.00,,---,0.00,VWS V14.01,2013-11-21 18:12:00,
2013-11-21 13:17:00,43.5,2.8,30.30,SW,215,0.0,0.0,18,0.00,,---,0.00,VWS V14.01,2013-11-21 18:17:00,
2013-11-21 13:22:00,44.1,3.3,30.30,ESE,122,0.0,0.0,18,0.00,,---,0.00,VWS V14.01,2013-11-21 18:22:00,
2013-11-21 13:27:00,44.6,2.5,30.30,ENE,57,3.1,5.4,17,0.00,,---,0.00,VWS V14.01,2013-11-21 18:27:00,
2013-11-21 13:32:00,45.1,2.9,30.30,SW,218,5.8,5.8,17,0.00,,---,0.00,VWS V14.01,2013-11-21 18:32:00,
2013-11-21 13:37:00,45.0,2.8,30.30,SSW,203,2.2,4.0,17,0.00,,---,0.00,VWS V14.01,2013-11-21 18:37:00,
2013-11-21 13:42:00,45.1,2.9,30.30,South,178,3.6,3.6,17,0.00,,---,0.00,VWS V14.01,2013-11-21 18:42:00,
2013-11-21 13:47:00,45.3,3.1,30.30,SW,221,0.0,0.0,17,0.00,,---,0.00,VWS V14.01,2013-11-21 18:47:00,
2013-11-21 13:52:00,45.3,3.1,30.30,SSW,201,0.0,5.4,17,0.00,,---,0.00,VWS V14.01,2013-11-21 18:52:00,
2013-11-21 13:57:00,45.1,2.9,30.30,South,174,4.0,4.0,17,0.00,,---,0.00,VWS V14.01,2013-11-21 18:57:00,
2013-11-21 14:02:00,45.1,2.9,30.30,SSW,192,0.0,0.0,17,0.00,,---,0.00,VWS V14.01,2013-11-21 19:02:00,
2013-11-21 14:07:00,45.1,2.9,30.30,SW,231,0.0,0.0,17,0.00,,---,0.00,VWS V14.01,2013-11-21 19:07:00,
2013-11-21 14:13:00,45.1,2.9,30.30,SW,222,0.0,0.0,17,0.00,,---,0.00,VWS V14.01,2013-11-21 19:13:00,
2013-11-21 14:18:00,45.1,2.9,30.30,South,181,0.0,0.0,17,0.00,,---,0.00,VWS V14.01,2013-11-21 19:18:00,
2013-11-21 14:23:00,45.1,2.9,30.27,SW,221,0.0,0.0,17,0.00,,---,0.00,VWS V14.01,2013-11-21 19:23:00,
2013-11-21 14:28:00,45.1,2.9,30.27,SSW,213,0.0,2.7,17,0.00,,---,0.00,VWS V14.01,2013-11-21 19:28:00,
2013-11-21 14:33:00,45.3,3.1,30.27,SSW,213,0.0,2.2,17,0.00,,---,0.00,VWS V14.01,2013-11-21 19:33:00,
2013-11-21 14:38:00,45.3,3.1,30.27,SSW,213,0.0,0.0,17,0.00,,---,0.00,VWS V14.01,2013-11-21 19:38:00,
2013-11-21 14:43:00,45.5,3.2,30.27,ENE,62,0.0,3.6,17,0.00,,---,0.00,VWS V14.01,2013-11-21 19:43:00,
2013-11-21 14:48:00,45.3,3.1,30.27,ENE,61,0.0,2.7,17,0.00,,---,0.00,VWS V14.01,2013-11-21 19:48:00,
2013-11-21 14:53:00,45.5,3.2,30.27,ENE,77,0.0,0.0,17,0.00,,---,0.00,VWS V14.01,2013-11-21 19:53:00,
2013-11-21 14:58:00,45.5,3.2,30.27,ENE,69,2.2,3.1,17,0.00,,---,0.00,VWS V14.01,2013-11-21 19:58:00,
2013-11-21 15:03:00,45.5,3.2,30.27,ENE,76,2.7,2.7,17,0.00,,---,0.00,VWS V14.01,2013-11-21 20:03:00,
2013-11-21 15:08:00,45.5,3.2,30.27,ENE,76,2.7,3.1,17,0.00,,---,0.00,VWS V14.01,2013-11-21 20:08:00,
2013-11-21 15:13:00,45.7,3.4,30.27,ENE,76,0.0,0.0,17,0.00,,---,0.00,VWS V14.01,2013-11-21 20:13:00,
2013-11-21 15:18:00,46.0,3.7,30.27,ENE,76,0.0,0.0,17,0.00,,---,0.00,VWS V14.01,2013-11-21 20:18:00,
2013-11-21 15:23:00,46.0,3.7,30.27,ENE,76,0.0,0.0,17,0.00,,---,0.00,VWS V14.01,2013-11-21 20:23:00,
2013-11-21 15:28:00,46.0,3.7,30.27,ENE,76,0.0,0.0,17,0.00,,---,0.00,VWS V14.01,2013-11-21 20:28:00,
2013-11-21 15:33:00,46.0,3.7,30.27,East,87,0.0,0.0,17,0.00,,---,0.00,VWS V14.01,2013-11-21 20:33:00,
2013-11-21 15:38:00,46.2,3.8,30.27,East,87,0.0,0.0,17,0.00,,---,0.00,VWS V14.01,2013-11-21 20:38:00,
2013-11-21 15:44:00,46.2,3.8,30.27,SW,221,0.0,0.0,17,0.00,,---,0.00,VWS V14.01,2013-11-21 20:44:00,
2013-11-21 15:49:00,46.0,3.7,30.27,SW,223,0.0,0.0,17,0.00,,---,0.00,VWS V14.01,2013-11-21 20:49:00,
2013-11-21 15:54:00,46.0,3.7,30.27,SW,223,0.0,0.0,17,0.00,,---,0.00,VWS V14.01,2013-11-21 20:54:00,
2013-11-21 15:59:00,46.0,3.7,30.27,SW,223,0.0,0.0,17,0.00,,---,0.00,VWS V14.01,2013-11-21 20:59:00,
2013-11-21 16:04:00,46.0,3.7,30.27,East,89,0.0,0.0,17,0.00,,---,0.00,VWS V14.01,2013-11-21 21:04:00,
2013-11-21 16:09:00,45.9,3.5,30.27,East,89,0.0,0.0,17,0.00,,---,0.00,VWS V14.01,2013-11-21 21:09:00,
2013-11-21 16:14:00,45.9,3.5,30.27,East,89,0.0,0.0,17,0.00,,---,0.00,VWS V14.01,2013-11-21 21:14:00,
2013-11-21 16:19:00,45.9,3.5,30.27,East,89,0.0,0.0,17,0.00,,---,0.00,VWS V14.01,2013-11-21 21:19:00,
2013-11-21 16:24:00,45.7,3.4,30.24,East,89,0.0,0.0,17,0.00,,---,0.00,VWS V14.01,2013-11-21 21:24:00,
2013-11-21 16:29:00,45.5,3.2,30.24,East,89,0.0,0.0,17,0.00,,---,0.00,VWS V14.01,2013-11-21 21:29:00,
2013-11-21 16:34:00,45.5,3.2,30.24,East,89,0.0,0.0,17,0.00,,---,0.00,VWS V14.01,2013-11-21 21:34:00,
2013-11-21 16:39:00,45.3,3.1,30.27,East,89,0.0,0.0,17,0.00,,---,0.00,VWS V14.01,2013-11-21 21:39:00,
2013-11-21 16:44:00,45.3,3.1,30.27,East,89,0.0,0.0,17,0.00,,---,0.00,VWS V14.01,2013-11-21 21:44:00,
2013-11-21 16:49:00,45.1,2.9,30.27,East,89,0.0,0.0,17,0.00,,---,0.00,VWS V14.01,2013-11-21 21:49:00,
2013-11-21 16:54:00,45.0,2.8,30.27,East,89,0.0,0.0,17,0.00,,---,0.00,VWS V14.01,2013-11-21 21:54:00,
2013-11-21 16:59:00,44.6,2.5,30.27,East,89,0.0,0.0,17,0.00,,---,0.00,VWS V14.01,2013-11-21 21:59:00,
2013-11-21 17:04:00,44.2,3.4,30.27,East,89,0.0,0.0,18,0.00,,---,0.00,VWS V14.01,2013-11-21 22:04:00,
2013-11-21 17:09:00,43.7,3.0,30.27,East,89,0.0,0.0,18,0.00,,---,0.00,VWS V14.01,2013-11-21 22:09:00,
2013-11-21 17:14:00,43.5,2.8,30.27,East,89,0.0,0.0,18,0.00,,---,0.00,VWS V14.01,2013-11-21 22:14:00,
2013-11-21 17:19:00,43.3,2.7,30.27,East,89,0.0,0.0,18,0.00,,---,0.00,VWS V14.01,2013-11-21 22:19:00,
2013-11-21 17:24:00,43.2,2.5,30.27,East,89,0.0,0.0,18,0.00,,---,0.00,VWS V14.01,2013-11-21 22:24:00,
2013-11-21 17:30:00,43.0,2.4,30.27,East,89,0.0,0.0,18,0.00,,---,0.00,VWS V14.01,2013-11-21 22:30:00,
2013-11-21 17:35:00,43.0,2.4,30.27,East,89,0.0,0.0,18,0.00,,---,0.00,VWS V14.01,2013-11-21 22:35:00,
2013-11-21 17:40:00,43.0,2.4,30.27,East,89,0.0,0.0,18,0.00,,---,0.00,VWS V14.01,2013-11-21 22:40:00,
2013-11-21 17:44:00,43.0,2.4,30.27,East,89,0.0,0.0,18,0.00,,---,0.00,VWS V14.01,2013-11-21 22:44:00,
2013-11-21 17:49:00,43.0,4.7,30.27,East,89,0.0,0.0,20,0.00,,---,0.00,VWS V14.01,2013-11-21 22:49:00,
2013-11-21 17:54:00,42.8,4.5,30.27,East,89,0.0,0.0,20,0.00,,---,0.00,VWS V14.01,2013-11-21 22:54:00,
2013-11-21 17:59:00,42.8,4.5,30.27,East,89,0.0,0.0,20,0.00,,---,0.00,VWS V14.01,2013-11-21 22:59:00,
2013-11-21 18:04:00,43.0,4.7,30.27,East,89,0.0,0.0,20,0.00,,---,0.00,VWS V14.01,2013-11-21 23:04:00,
2013-11-21 18:10:00,43.0,4.7,30.27,East,89,0.0,0.0,20,0.00,,---,0.00,VWS V14.01,2013-11-21 23:10:00,
2013-11-21 18:15:00,43.0,4.7,30.27,East,89,0.0,0.0,20,0.00,,---,0.00,VWS V14.01,2013-11-21 23:15:00,
2013-11-21 18:20:00,43.2,4.8,30.27,East,89,0.0,0.0,20,0.00,,---,0.00,VWS V14.01,2013-11-21 23:20:00,
2013-11-21 18:25:00,43.2,4.8,30.27,East,89,0.0,0.0,20,0.00,,---,0.00,VWS V14.01,2013-11-21 23:25:00,
2013-11-21 18:30:00,43.0,4.7,30.27,East,89,0.0,0.0,20,0.00,,---,0.00,VWS V14.01,2013-11-21 23:30:00,
2013-11-21 18:35:00,43.0,4.7,30.27,East,89,0.0,0.0,20,0.00,,---,0.00,VWS V14.01,2013-11-21 23:35:00,
2013-11-21 18:40:00,42.8,4.5,30.27,East,89,0.0,0.0,20,0.00,,---,0.00,VWS V14.01,2013-11-21 23:40:00,
2013-11-21 18:45:00,42.8,4.5,30.27,East,89,0.0,0.0,20,0.00,,---,0.00,VWS V14.01,2013-11-21 23:45:00,
2013-11-21 18:50:00,42.8,4.5,30.27,East,89,0.0,0.0,20,0.00,,---,0.00,VWS V14.01,2013-11-21 23:50:00,
2013-11-21 18:55:00,42.8,4.5,30.27,East,89,0.0,0.0,20,0.00,,---,0.00,VWS V14.01,2013-11-21 23:55:00,
2013-11-21 19:00:00,42.6,5.4,30.27,East,89,0.0,0.0,21,0.00,,---,0.00,VWS V14.01,2013-11-22 00:00:00,
2013-11-21 19:06:00,42.4,5.3,30.27,East,89,0.0,0.0,21,0.00,,---,0.00,VWS V14.01,2013-11-22 00:06:00,
2013-11-21 19:11:00,42.4,5.3,30.27,East,89,0.0,0.0,21,0.00,,---,0.00,VWS V14.01,2013-11-22 00:11:00,
2013-11-21 19:15:00,42.3,5.1,30.27,East,89,0.0,0.0,21,0.00,,---,0.00,VWS V14.01,2013-11-22 00:15:00,
2013-11-21 19:20:00,42.3,5.1,30.27,East,89,0.0,0.0,21,0.00,,---,0.00,VWS V14.01,2013-11-22 00:20:00,
2013-11-21 19:25:00,42.3,5.1,30.27,East,89,0.0,0.0,21,0.00,,---,0.00,VWS V14.01,2013-11-22 00:25:00,
2013-11-21 19:30:00,42.3,5.1,30.27,East,89,0.0,0.0,21,0.00,,---,0.00,VWS V14.01,2013-11-22 00:30:00,
2013-11-21 19:35:00,42.3,5.1,30.27,East,89,0.0,0.0,21,0.00,,---,0.00,VWS V14.01,2013-11-22 00:35:00,
2013-11-21 19:41:00,42.3,5.1,30.27,East,89,0.0,0.0,21,0.00,,---,0.00,VWS V14.01,2013-11-22 00:41:00,
2013-11-21 19:46:00,42.3,7.1,30.27,East,89,0.0,0.0,23,0.00,,---,0.00,VWS V14.01,2013-11-22 00:46:00,
2013-11-21 19:51:00,42.3,7.1,30.27,East,89,0.0,0.0,23,0.00,,---,0.00,VWS V14.01,2013-11-22 00:51:00,
2013-11-21 19:56:00,42.3,7.1,30.27,East,89,0.0,0.0,23,0.00,,---,0.00,VWS V14.01,2013-11-22 00:56:00,
2013-11-21 20:01:00,42.3,7.1,30.27,East,89,0.0,0.0,23,0.00,,---,0.00,VWS V14.01,2013-11-22 01:01:00,
2013-11-21 20:06:00,42.3,7.1,30.27,East,89,0.0,0.0,23,0.00,,---,0.00,VWS V14.01,2013-11-22 01:06:00,
2013-11-21 20:11:00,42.1,7.0,30.27,East,89,0.0,0.0,23,0.00,,---,0.00,VWS V14.01,2013-11-22 01:11:00,
2013-11-21 20:16:00,42.1,7.0,30.27,East,89,0.0,0.0,23,0.00,,---,0.00,VWS V14.01,2013-11-22 01:16:00,
2013-11-21 20:21:00,42.1,7.0,30.27,East,89,0.0,0.0,23,0.00,,---,0.00,VWS V14.01,2013-11-22 01:21:00,
2013-11-21 20:26:00,42.3,7.1,30.27,East,89,0.0,0.0,23,0.00,,---,0.00,VWS V14.01,2013-11-22 01:26:00,
2013-11-21 20:31:00,42.3,7.1,30.27,East,89,0.0,0.0,23,0.00,,---,0.00,VWS V14.01,2013-11-22 01:31:00,
2013-11-21 20:36:00,42.3,7.1,30.27,East,89,0.0,0.0,23,0.00,,---,0.00,VWS V14.01,2013-11-22 01:36:00,
2013-11-21 20:41:00,42.3,9.8,30.27,East,89,0.0,0.0,26,0.00,,---,0.00,VWS V14.01,2013-11-22 01:41:00,
2013-11-21 20:46:00,42.1,9.7,30.27,East,89,0.0,0.0,26,0.00,,---,0.00,VWS V14.01,2013-11-22 01:46:00,
2013-11-21 20:51:00,42.1,9.7,30.27,East,89,0.0,0.0,26,0.00,,---,0.00,VWS V14.01,2013-11-22 01:51:00,
2013-11-21 20:56:00,41.9,9.5,30.27,East,89,0.0,0.0,26,0.00,,---,0.00,VWS V14.01,2013-11-22 01:56:00,
2013-11-21 21:01:00,41.7,9.4,30.27,East,89,0.0,0.0,26,0.00,,---,0.00,VWS V14.01,2013-11-22 02:01:00,
2013-11-21 21:06:00,41.7,9.4,30.27,East,89,0.0,0.0,26,0.00,,---,0.00,VWS V14.01,2013-11-22 02:06:00,
2013-11-21 21:08:00,41.7,9.4,30.27,East,89,0.0,0.0,26,0.00,,---,0.00,VWS V14.01,2013-11-22 02:08:00,
2013-11-21 21:09:00,41.7,9.4,30.27,East,89,0.0,0.0,26,0.00,,---,0.00,VWS V14.01,2013-11-22 02:09:00,
2013-11-21 21:11:00,41.7,9.4,30.27,East,89,0.0,0.0,26,0.00,,---,0.00,VWS V14.01,2013-11-22 02:11:00,
2013-11-21 21:16:00,41.5,9.2,30.27,East,89,0.0,0.0,26,0.00,,---,0.00,VWS V14.01,2013-11-22 02:16:00,
2013-11-21 21:21:00,41.5,9.2,30.27,East,89,0.0,0.0,26,0.00,,---,0.00,VWS V14.01,2013-11-22 02:21:00,
2013-11-21 21:26:00,41.7,9.4,30.27,East,89,0.0,0.0,26,0.00,,---,0.00,VWS V14.01,2013-11-22 02:26:00,
2013-11-21 21:31:00,41.7,9.4,30.27,East,89,0.0,0.0,26,0.00,,---,0.00,VWS V14.01,2013-11-22 02:31:00,
2013-11-21 21:36:00,41.7,9.4,30.27,East,89,0.0,0.0,26,0.00,,---,0.00,VWS V14.01,2013-11-22 02:36:00,
2013-11-21 21:41:00,41.7,11.0,30.27,East,89,0.0,0.0,28,0.00,,---,0.00,VWS V14.01,2013-11-22 02:41:00,
2013-11-21 21:46:00,41.7,11.0,30.27,East,89,0.0,0.0,28,0.00,,---,0.00,VWS V14.01,2013-11-22 02:46:00,
2013-11-21 21:51:00,41.7,11.0,30.27,East,89,0.0,0.0,28,0.00,,---,0.00,VWS V14.01,2013-11-22 02:51:00,
2013-11-21 21:56:00,41.7,11.0,30.27,East,89,0.0,0.0,28,0.00,,---,0.00,VWS V14.01,2013-11-22 02:56:00,
2013-11-21 22:01:00,41.7,11.0,30.27,East,89,0.0,0.0,28,0.00,,---,0.00,VWS V14.01,2013-11-22 03:01:00,
2013-11-21 22:06:00,41.7,11.0,30.27,East,89,0.0,0.0,28,0.00,,---,0.00,VWS V14.01,2013-11-22 03:06:00,
2013-11-21 22:11:00,41.9,11.2,30.27,East,89,0.0,0.0,28,0.00,,---,0.00,VWS V14.01,2013-11-22 03:11:00,
2013-11-21 22:16:00,41.9,11.2,30.27,East,89,0.0,0.0,28,0.00,,---,0.00,VWS V14.01,2013-11-22 03:16:00,
2013-11-21 22:21:00,42.1,11.3,30.27,East,89,0.0,0.0,28,0.00,,---,0.00,VWS V14.01,2013-11-22 03:21:00,
2013-11-21 22:26:00,42.3,11.5,30.27,East,89,0.0,0.0,28,0.00,,---,0.00,VWS V14.01,2013-11-22 03:26:00,
2013-11-21 22:31:00,42.6,11.8,30.27,East,89,0.0,0.0,28,0.00,,---,0.00,VWS V14.01,2013-11-22 03:31:00,
2013-11-21 22:36:00,43.0,12.1,30.27,East,89,0.0,0.0,28,0.00,,---,0.00,VWS V14.01,2013-11-22 03:36:00,
2013-11-21 22:41:00,43.5,12.6,30.27,East,89,0.0,0.0,28,0.00,,---,0.00,VWS V14.01,2013-11-22 03:41:00,
2013-11-21 22:46:00,43.5,12.6,30.27,East,89,0.0,0.0,28,0.00,,---,0.00,VWS V14.01,2013-11-22 03:46:00,
2013-11-21 22:51:00,43.5,12.6,30.27,East,89,0.0,0.0,28,0.00,,---,0.00,VWS V14.01,2013-11-22 03:51:00,
2013-11-21 22:56:00,43.5,12.6,30.27,East,89,0.0,0.0,28,0.00,,---,0.00,VWS V14.01,2013-11-22 03:56:00,
2013-11-21 23:01:00,43.3,12.4,30.27,East,89,0.0,0.0,28,0.00,,---,0.00,VWS V14.01,2013-11-22 04:01:00,
2013-11-21 23:07:00,43.3,12.4,30.27,East,89,0.0,0.0,28,0.00,,---,0.00,VWS V14.01,2013-11-22 04:07:00,
2013-11-21 23:12:00,43.0,12.1,30.27,East,89,0.0,0.0,28,0.00,,---,0.00,VWS V14.01,2013-11-22 04:12:00,
2013-11-21 23:17:00,42.8,12.0,30.27,East,89,0.0,0.0,28,0.00,,---,0.00,VWS V14.01,2013-11-22 04:17:00,
2013-11-21 23:23:00,42.8,12.0,30.27,East,89,0.0,0.0,28,0.00,,---,0.00,VWS V14.01,2013-11-22 04:23:00,
2013-11-21 23:28:00,42.8,12.0,30.27,East,89,0.0,0.0,28,0.00,,---,0.00,VWS V14.01,2013-11-22 04:28:00,
2013-11-21 23:33:00,42.8,12.0,30.27,East,89,0.0,0.0,28,0.00,,---,0.00,VWS V14.01,2013-11-22 04:33:00,
2013-11-21 23:38:00,43.0,12.1,30.27,East,89,0.0,0.0,28,0.00,,---,0.00,VWS V14.01,2013-11-22 04:38:00,
2013-11-21 23:43:00,43.2,12.3,30.27,East,89,0.0,0.0,28,0.00,,---,0.00,VWS V14.01,2013-11-22 04:43:00,
2013-11-21 23:48:00,43.3,12.4,30.27,East,89,0.0,0.0,28,0.00,,---,0.00,VWS V14.01,2013-11-22 04:48:00,
2013-11-21 23:53:00,43.3,12.4,30.27,East,89,0.0,0.0,28,0.00,,---,0.00,VWS V14.01,2013-11-22 04:53:00,
2013-11-21 23:58:00,43.0,12.1,30.27,East,89,0.0,0.0,28,0.00,,---,0.00,VWS V14.01,2013-11-22 04:58:00,